Latest Coastal Weather Observations for Kalumburu

IDW60701

Issued at 7:33 pm WST Saturday 3 December 2016 (issued every 10 minutes, with the page automatically refreshed every 10 minutes)

About coastal observations | Map of coastal stations | Coastal observations for WA | Marine services | Other Formats
Station Details ID: 001019 Name: KALUMBURU Lat: -14.30 Lon: 126.65 Height: 23.0 m
Data from the previous 72 hours. | See also: Recent months at Kalumburu
Date/Time
WST
Temp
°C
Wind Pressure Rain since
9am
mm
Weather Cloud Vis
km
Sea
Height
m
Swell
Dir  Spd
kts
Gust
kts
hPa Trend Height
m
Period
s
Dir
03/07:00pm 29.4 NNE 7 11 1009.6 - 0.2 - - - - - - -
03/06:30pm 29.6 NNW 5 7 1009.4 - 0.2 - - - - - - -
03/06:00pm 29.9 NNW 5 8 1009.0 - 0.2 - - - - - - -
03/05:30pm 30.2 NNW 4 6 1008.5 - 0.2 - - - - - - -
03/05:00pm 30.8 NNW 5 7 1008.2 - 0.2 - - - - - - -
03/04:30pm 31.2 N 5 7 1007.8 - 0.2 - - - - - - -
03/04:00pm 31.2 NNE 4 6 1007.4 - 0.2 - - - - - - -
03/03:30pm 31.1 NE 2 5 1007.4 - 0.2 - - - - - - -
03/03:00pm 29.9 SW 3 5 1007.6 - 0.2 - - - - - - -
03/02:30pm 28.9 NNE 3 4 1007.3 - 0.2 - - - - - - -
03/02:00pm 27.9 ESE 3 4 1007.2 - 0.2 - - - - - - -
03/01:30pm 26.8 SSE 3 6 1007.9 - 0.2 - - - - - - -
03/01:00pm 26.2 E 7 13 1008.8 - 0.0 - - - - - - -
03/12:30pm 26.7 ENE 9 15 1009.3 - 0.0 - - - - - - -
03/12:00pm 30.6 NE 10 17 1009.2 - 0.0 - - - - - - -
03/11:30am 33.8 NNE 5 6 1008.4 - 0.0 - - - - - - -
03/11:00am 33.7 SE 3 5 1008.8 - 0.0 - - - - - - -
03/10:30am 33.3 SSW 3 5 1009.3 - 0.0 - - - - - - -
03/10:00am 32.4 SW 3 5 1009.8 - 0.0 - - - - - - -
03/09:30am 32.6 S 3 6 1010.2 - 0.0 - - - - - - -
03/09:00am 31.8 SW 2 5 1010.3 - 16.6 - - - - - - -
03/08:30am 30.8 NNE 3 5 1010.3 - 16.6 - - - - - - -
03/08:00am 30.7 E 1 4 1010.4 - 16.6 - - - - - - -
03/07:30am 29.6 SE 2 4 1010.5 - 16.4 - - - - - - -
03/07:00am 28.2 S 4 5 1009.9 - 16.4 - - - - - - -
03/06:30am 27.6 SSW 2 3 1009.7 - 16.4 - - - - - - -
03/06:00am 26.3 CALM 0 0 1009.3 - 16.4 - - - - - - -
03/05:30am 24.4 CALM 0 0 1008.9 - 16.4 - - - - - - -
03/05:00am 24.0 CALM 0 0 1008.6 - 16.4 - - - - - - -
03/04:30am 24.2 CALM 0 0 1008.2 - 16.4 - - - - - - -
03/04:00am 24.5 SSW 2 4 1008.1 - 16.4 - - - - - - -
03/03:30am 24.4 S 2 6 1008.1 - 16.4 - - - - - - -
03/03:00am 24.5 SW 2 4 1007.7 - 16.4 - - - - - - -
03/02:30am 24.7 S 3 5 1007.7 - 16.4 - - - - - - -
03/02:00am 24.9 S 3 5 1007.7 - 16.4 - - - - - - -
03/01:30am 24.7 SSE 2 4 1007.6 - 16.4 - - - - - - -
03/01:00am 24.7 W 2 4 1007.3 - 16.4 - - - - - - -
03/12:30am 24.4 E 1 4 1007.5 - 16.4 - - - - - - -
03/12:00am 24.7 CALM 0 0 1008.0 - 16.4 Recent precip. - - - - - -
 
Date/Time
WST
Temp
°C
Wind Pressure Rain since
9am
mm
Weather Cloud Vis
km
Sea
Height
m
Swell
Dir  Spd
kts
Gust
kts
hPa Trend Height
m
Period
s
Dir
02/11:30pm 24.8 NNE 3 4 1008.2 - 16.2 - - - - - - -
02/11:00pm 24.6 S 1 3 1008.6 - 16.2 - - - - - - -
02/10:30pm 24.8 SW 3 4 1009.1 - 16.2 - - - - - - -
02/10:00pm 24.8 CALM 0 3 1009.4 - 16.2 - - - - - - -
02/09:30pm 24.8 E 2 4 1009.3 - 16.2 - - - - - - -
02/09:00pm 24.7 SE 3 4 1009.2 - 16.2 Recent precip. - - - - - -
02/08:30pm 24.8 ESE 1 4 1009.0 - 16.2 - - - - - - -
02/08:00pm 24.7 SE 4 6 1008.9 - 16.0 - - - - - - -
02/07:30pm 25.2 NNW 5 8 1008.3 - 15.8 - - - - - - -
02/07:00pm 24.4 WNW 2 4 1008.0 - 15.8 - - - - - - -
02/06:30pm 24.1 NNW 3 5 1007.8 - 15.6 - - - - - - -
02/06:00pm 23.5 ENE 4 5 1007.4 - 15.4 Recent precip. - - - - - -
02/05:30pm 22.9 SSE 6 10 1007.1 - 15.4 - - - - - - -
02/05:00pm 22.7 S 9 19 1008.7 - 12.4 - - - - - - -
02/04:30pm 23.6 SSE 13 29 1007.7 - 0.0 - - - - - - -
02/04:21pm 28.1 NW 10 29 1007.1 - 0.0 - - - - - - -
02/04:19pm 31.8 NNW 8 13 1007.0 - 0.0 - - - - - - -
02/04:00pm 32.1 N 13 17 1004.9 - 0.0 - - - - - - -
02/03:30pm 33.0 N 12 16 1005.3 - 0.0 - - - - - - -
02/03:00pm 34.2 N 11 15 1005.0 - 0.0 - - - - - - -
02/02:30pm 34.4 N 9 14 1005.1 - 0.0 - - - - - - -
02/02:00pm 35.6 NNW 7 11 1005.2 - 0.0 - - - - - - -
02/01:30pm 35.5 NNW 8 12 1005.5 - 0.0 - - - - - - -
02/01:00pm 35.8 NNW 8 11 1005.8 - 0.0 - - - - - - -
02/12:30pm 35.5 NE 5 10 1006.4 - 0.0 - - - - - - -
02/12:00pm 34.6 ENE 5 10 1007.0 - 0.0 - - - - - - -
02/11:30am 33.9 N 6 9 1007.3 - 0.0 - - - - - - -
02/11:00am 33.8 N 7 10 1007.6 - 0.0 - - - - - - -
02/10:30am 33.5 NNW 6 8 1007.7 - 0.0 - - - - - - -
02/10:00am 33.0 NW 6 10 1008.1 - 0.0 - - - - - - -
02/09:30am 32.9 NNW 5 8 1008.6 - 0.0 - - - - - - -
02/09:00am 32.4 N 3 5 1008.9 - 8.8 Recent precip. - - - - - -
02/08:30am 31.8 NNE 4 6 1009.4 - 8.8 - - - - - - -
02/08:00am 31.2 CALM 0 4 1009.8 - 8.6 - - - - - - -
02/07:30am 31.3 NE 4 5 1009.9 - 8.6 - - - - - - -
02/07:00am 30.1 E 5 8 1010.2 - 8.6 - - - - - - -
02/06:30am 29.0 ESE 7 11 1010.0 - 8.6 - - - - - - -
02/06:00am 28.5 SE 4 9 1009.6 - 8.6 - - - - - - -
02/05:30am 26.3 SSW 2 4 1009.3 - 8.6 - - - - - - -
02/05:00am 26.0 SSE 2 4 1008.9 - 8.6 - - - - - - -
02/04:30am 24.8 SSE 1 3 1008.7 - 8.6 - - - - - - -
02/04:00am 24.5 S 1 4 1007.9 - 8.6 - - - - - - -
02/03:30am 24.6 CALM 0 0 1007.1 - 8.6 - - - - - - -
02/03:00am 24.8 CALM 0 0 1006.4 - 8.6 - - - - - - -
02/02:30am 25.0 SE 3 4 1006.4 - 8.6 - - - - - - -
02/02:00am 24.8 CALM 0 0 1006.3 - 8.6 - - - - - - -
02/01:30am 25.4 CALM 0 0 1006.0 - 8.6 - - - - - - -
02/01:00am 26.1 WSW 4 4 1006.2 - 8.6 - - - - - - -
02/12:30am 26.2 ESE 3 4 1006.5 - 8.6 - - - - - - -
02/12:00am 26.8 ENE 2 4 1006.4 - 8.6 - - - - - - -
 
Date/Time
WST
Temp
°C
Wind Pressure Rain since
9am
mm
Weather Cloud Vis
km
Sea
Height
m
Swell
Dir  Spd
kts
Gust
kts
hPa Trend Height
m
Period
s
Dir
01/11:30pm 27.0 NE 4 7 1006.6 - 8.6 - - - - - - -
01/11:00pm 27.2 NE 5 7 1006.7 - 8.6 - - - - - - -
01/10:30pm 26.6 ENE 3 7 1007.3 - 8.6 - - - - - - -
01/10:00pm 26.6 N 3 5 1007.0 - 8.6 - - - - - - -
01/09:30pm 26.2 N 3 4 1006.8 - 8.6 - - - - - - -
01/09:00pm 26.2 SSE 4 6 1006.6 - 8.6 - - - - - - -
01/08:30pm 26.3 SSE 3 5 1007.0 - 8.6 - - - - - - -
01/08:00pm 26.5 SSE 5 9 1007.0 - 8.6 - - - - - - -
01/07:30pm 26.1 SSE 4 7 1006.6 - 8.6 - - - - - - -
01/07:00pm 24.9 S 1 5 1005.8 - 8.6 - - - - - - -
01/06:30pm 25.1 WNW 5 10 1005.3 - 8.6 - - - - - - -
01/06:00pm 25.8 NW 8 13 1004.9 - 8.6 Recent precip. - - - - - -
01/05:30pm 24.0 NW 13 18 1005.3 - 8.6 - - - - - - -
01/05:01pm 24.4 WNW 15 28 1006.3 - 6.6 - - - - - - -
01/05:00pm 24.3 WNW 14 28 1006.3 - 6.6 - - - - - - -
01/04:30pm 27.3 N 12 19 1004.8 - 1.4 - - - - - - -
01/04:00pm 29.7 NE 9 15 1003.9 - 1.0 - - - - - - -
01/03:33pm 32.5 NNE 11 26 1004.3 - 0.2 - - - - - - -
01/03:30pm 34.5 NNE 9 18 1003.9 - 0.2 - - - - - - -
01/03:00pm 35.8 N 8 11 1003.9 - 0.2 - - - - - - -
01/02:30pm 36.4 NNW 10 16 1003.7 - 0.2 - - - - - - -
01/02:00pm 37.1 NNW 7 11 1004.4 - 0.2 - - - - - - -
01/01:30pm 36.6 NW 7 11 1005.0 - 0.2 - - - - - - -
01/01:00pm 37.3 W 5 11 1005.1 - 0.2 - - - - - - -
01/12:30pm 37.1 WNW 6 9 1005.8 - 0.2 - - - - - - -
01/12:00pm 36.3 SW 4 9 1006.3 - 0.2 - - - - - - -
01/11:30am 36.2 SSW 3 5 1006.6 - 0.2 - - - - - - -
01/11:00am 35.4 SW 4 6 1007.0 - 0.2 - - - - - - -
01/10:30am 35.2 S 3 4 1007.3 - 0.2 - - - - - - -
01/10:00am 34.8 SSE 5 9 1007.4 - 0.2 - - - - - - -
01/09:30am 34.1 ENE 3 7 1007.4 - 0.2 - - - - - - -
01/09:00am 32.3 ESE 3 4 1007.9 - 5.2 - - - - - - -
01/08:30am 31.1 E 3 5 1008.4 - 5.2 - - - - - - -
01/08:00am 30.0 ESE 1 4 1008.7 - 5.2 - - - - - - -
01/07:30am 29.6 ENE 3 4 1008.7 - 5.2 - - - - - - -
01/07:00am 28.8 CALM 0 0 1008.5 - 5.2 - - - - - - -
01/06:30am 28.0 CALM 0 0 1008.5 - 5.2 - - - - - - -
01/06:00am 27.0 ESE 3 4 1008.1 - 5.2 - - - - - - -
01/05:30am 26.8 CALM 0 0 1007.8 - 5.2 - - - - - - -
01/05:00am 26.9 CALM 0 0 1007.5 - 5.2 - - - - - - -
01/04:30am 27.0 CALM 0 0 1007.3 - 5.0 - - - - - - -
01/04:00am 27.0 CALM 0 0 1006.8 - 5.0 - - - - - - -
01/03:30am 27.0 SSE 3 3 1006.5 - 5.0 - - - - - - -
01/03:00am 26.6 SSE 2 3 1006.3 - 5.0 - - - - - - -
01/02:30am 27.0 S 2 4 1006.2 - 5.0 - - - - - - -
01/02:00am 27.0 W 1 3 1006.0 - 5.0 - - - - - - -
01/01:30am 27.1 CALM 0 0 1006.2 - 5.0 - - - - - - -
01/01:00am 27.9 SSW 1 4 1006.3 - 5.0 - - - - - - -
01/12:30am 28.0 SSW 4 5 1006.0 - 5.0 - - - - - - -
01/12:00am 27.0 S 3 5 1006.2 - 5.0 - - - - - - -
 
Date/Time
WST
Temp
°C
Wind Pressure Rain since
9am
mm
Weather Cloud Vis
km
Sea
Height
m
Swell
Dir  Spd
kts
Gust
kts
hPa Trend Height
m
Period
s
Dir
30/11:30pm 27.4 CALM 0 0 1006.2 - 5.0 - - - - - - -
30/11:00pm 27.3 CALM 0 0 1006.7 - 5.0 - - - - - - -
30/10:30pm 27.2 CALM 0 0 1007.1 - 5.0 - - - - - - -
30/10:00pm 27.7 CALM 0 3 1007.4 - 5.0 - - - - - - -
30/09:30pm 28.7 S 4 5 1007.6 - 5.0 - - - - - - -
30/09:00pm 28.0 S 4 6 1007.7 - 5.0 Recent precip. - - - - - -
30/08:30pm 27.2 S 3 5 1007.3 - 4.8 - - - - - - -
30/08:00pm 28.2 WNW 3 4 1006.9 - 4.8 - - - - - - -

Other Formats:

Comma delimited format used in spreadsheet applications
http://www.bom.gov.au/fwo/IDW60701/IDW60701.94100.axf

JavaScript Object Notation format (JSON) in row-major order
http://www.bom.gov.au/fwo/IDW60701/IDW60701.94100.json